createdAt,value
2022-10-01T00:01:17.285Z,13.65
2022-10-01T00:03:44.683Z,12.27
2022-10-01T00:09:38.911Z,13.43
2022-10-01T00:12:05.768Z,11.55
2022-10-01T00:14:33.078Z,12.35
2022-10-01T00:17:00.814Z,12.30
2022-10-01T00:19:27.535Z,11.23
2022-10-01T00:21:54.119Z,11.27
2022-10-01T00:24:29.226Z,11.30
2022-10-01T00:26:55.769Z,10.95
2022-10-01T00:29:22.364Z,8.45
2022-10-01T00:31:49.322Z,9.55
2022-10-01T00:34:15.977Z,9.93
2022-10-01T00:36:42.708Z,10.68
2022-10-01T00:39:27.704Z,9.68
2022-10-01T00:42:31.573Z,10.55
2022-10-01T00:45:05.224Z,10.18
2022-10-01T00:47:34.790Z,11.43
2022-10-01T00:50:08.098Z,9.75
2022-10-01T00:52:39.883Z,10.25
2022-10-01T00:55:41.344Z,9.98
2022-10-01T00:58:24.820Z,10.20
2022-10-01T01:00:54.060Z,9.57
2022-10-01T01:03:20.724Z,9.75
2022-10-01T01:05:47.917Z,11.07
2022-10-01T01:08:15.459Z,10.93
2022-10-01T01:10:57.698Z,10.55
2022-10-01T01:14:09.158Z,10.13
2022-10-01T01:19:43.401Z,10.57
2022-10-01T01:22:13.566Z,10.20
2022-10-01T01:24:55.951Z,10.05
2022-10-01T01:27:43.306Z,9.85
2022-10-01T01:30:15.068Z,10.07
2022-10-01T01:33:12.542Z,10.75
2022-10-01T01:35:47.808Z,10.13
2022-10-01T01:38:19.337Z,11.20
2022-10-01T01:40:51.624Z,11.25
2022-10-01T01:43:24.183Z,11.40
2022-10-01T01:45:55.177Z,10.82
2022-10-01T01:48:49.538Z,9.48
2022-10-01T01:56:26.834Z,10.48
2022-10-01T01:58:57.419Z,10.60
2022-10-01T02:01:37.952Z,9.95
2022-10-01T02:04:32.216Z,10.32
2022-10-01T02:07:45.936Z,9.93
2022-10-01T02:10:24.425Z,10.65
2022-10-01T02:13:10.065Z,10.07
2022-10-01T02:15:50.340Z,10.55
2022-10-01T02:18:48.289Z,10.77
2022-10-01T02:21:52.065Z,11.80
2022-10-01T02:28:24.577Z,11.25
2022-10-01T02:30:54.643Z,11.68
2022-10-01T02:33:32.963Z,12.63
2022-10-01T02:36:04.756Z,13.18
2022-10-01T02:38:34.895Z,13.02
2022-10-01T02:41:05.090Z,12.80
2022-10-01T02:43:56.020Z,13.23
2022-10-01T02:46:44.596Z,13.77
2022-10-01T02:49:18.045Z,12.48
2022-10-01T02:51:53.758Z,13.60
2022-10-01T02:54:24.589Z,13.73
2022-10-01T03:03:10.128Z,13.80
2022-10-01T03:05:36.720Z,13.77
2022-10-01T03:08:05.625Z,13.80
2022-10-01T03:10:32.255Z,14.52
2022-10-01T03:13:01.659Z,14.73
2022-10-01T03:15:28.812Z,14.38
2022-10-01T03:18:17.550Z,13.93
2022-10-01T03:20:44.160Z,14.68
2022-10-01T03:23:10.749Z,14.65
2022-10-01T03:25:37.466Z,14.77
2022-10-01T03:28:04.117Z,14.80
2022-10-01T03:30:30.735Z,13.13
2022-10-01T03:38:43.328Z,13.57
2022-10-01T03:41:09.954Z,13.38
2022-10-01T03:43:36.694Z,12.80
2022-10-01T03:46:03.861Z,12.50
2022-10-01T03:48:33.610Z,14.87
2022-10-01T03:51:53.342Z,11.85
2022-10-01T05:56:09.703Z,12.27
2022-10-01T05:58:37.820Z,11.82
2022-10-01T06:01:05.082Z,12.20
2022-10-01T06:03:31.846Z,11.82
2022-10-01T06:06:00.937Z,11.00
2022-10-01T06:08:27.775Z,12.27
2022-10-01T06:11:00.035Z,12.57
2022-10-01T06:13:29.554Z,14.32
2022-10-01T06:16:18.992Z,13.20
2022-10-01T08:33:34.605Z,14.68
2022-10-01T08:36:10.856Z,14.30
2022-10-01T08:38:38.677Z,14.02
2022-10-01T08:41:38.004Z,13.62
2022-10-01T08:44:07.347Z,14.63
2022-10-01T08:46:36.981Z,15.13
2022-10-01T08:49:12.730Z,15.10
2022-10-01T08:52:26.354Z,14.43
2022-10-01T08:54:56.972Z,15.93
2022-10-01T08:57:33.919Z,15.98
2022-10-01T09:00:04.204Z,15.27
2022-10-01T09:02:42.021Z,15.57
2022-10-01T09:05:22.042Z,15.52
2022-10-01T09:08:25.084Z,16.15
2022-10-01T09:11:02.085Z,15.73
2022-10-01T09:14:12.564Z,16.83
2022-10-01T09:16:54.397Z,16.83
2022-10-01T09:19:46.061Z,17.15
2022-10-01T09:25:26.265Z,16.85
2022-10-01T09:28:27.822Z,16.77
2022-10-01T09:43:11.663Z,15.10
2022-10-01T09:46:12.630Z,14.70
2022-10-01T09:52:02.723Z,14.05
2022-10-01T09:54:44.759Z,15.25
2022-10-01T10:02:31.653Z,14.45
2022-10-01T10:05:07.597Z,14.48
2022-10-01T10:07:41.592Z,14.68
2022-10-01T10:10:38.363Z,14.98
2022-10-01T10:13:10.930Z,15.13
2022-10-01T10:15:58.782Z,14.57
2022-10-01T10:18:34.649Z,15.02
2022-10-01T10:21:49.399Z,14.75
2022-10-01T10:24:31.122Z,14.32
2022-10-01T10:26:59.837Z,13.90
2022-10-01T10:29:32.464Z,12.73
2022-10-01T10:32:03.166Z,12.85
2022-10-01T10:35:24.351Z,13.88
2022-10-01T10:38:34.718Z,13.95
2022-10-01T10:41:03.897Z,13.32
2022-10-01T10:43:35.125Z,14.15
2022-10-01T10:46:02.897Z,14.23
2022-10-01T10:48:39.408Z,13.65
2022-10-01T10:51:06.347Z,14.27
2022-10-01T10:53:45.136Z,14.32
2022-10-01T10:56:23.581Z,14.10
2022-10-01T10:58:54.041Z,13.62
2022-10-01T11:01:43.132Z,13.07
2022-10-01T11:04:26.604Z,14.15
2022-10-01T11:07:01.689Z,13.38
2022-10-01T11:10:04.365Z,13.23
2022-10-01T11:12:49.605Z,12.32
2022-10-01T11:15:19.175Z,12.93
2022-10-01T11:18:13.101Z,12.82
2022-10-01T11:21:00.226Z,12.48
2022-10-01T11:23:34.089Z,11.27
2022-10-01T11:26:53.414Z,11.50
2022-10-01T11:29:36.052Z,10.60
2022-10-01T11:32:19.679Z,10.50
2022-10-01T11:34:50.389Z,9.63
2022-10-01T11:37:31.993Z,9.45
2022-10-01T11:40:03.276Z,8.95
2022-10-01T11:42:35.729Z,9.13
2022-10-01T11:45:23.226Z,8.90
2022-10-01T11:48:07.566Z,8.40
2022-10-01T11:50:41.903Z,9.10
2022-10-01T11:53:15.337Z,9.10
2022-10-01T11:56:04.519Z,8.68
2022-10-01T11:58:52.805Z,9.60
2022-10-01T12:01:30.178Z,8.63
2022-10-01T12:04:04.071Z,6.75
2022-10-01T12:06:38.136Z,5.57
2022-10-01T12:09:24.609Z,4.97
2022-10-01T12:12:01.212Z,4.25
2022-10-01T12:15:06.422Z,3.80
2022-10-01T12:17:45.045Z,3.60
2022-10-01T12:20:31.842Z,3.60
2022-10-01T12:23:02.509Z,3.65
2022-10-01T12:25:58.682Z,3.40
2022-10-01T12:28:37.416Z,3.58
2022-10-01T12:31:41.974Z,3.58
2022-10-01T12:34:23.917Z,4.30
2022-10-01T12:37:10.361Z,4.03
2022-10-01T12:40:15.051Z,4.20
2022-10-01T12:42:50.581Z,3.90
2022-10-01T12:45:38.728Z,4.20
2022-10-01T12:48:34.563Z,4.32
2022-10-01T12:51:42.927Z,4.70
2022-10-01T12:54:36.610Z,4.97
2022-10-01T12:57:11.809Z,4.85
2022-10-01T12:59:41.869Z,4.95
2022-10-01T13:02:20.691Z,5.00
2022-10-01T13:05:02.202Z,5.05
2022-10-01T13:08:01.021Z,5.55
2022-10-01T13:10:45.029Z,4.18
2022-10-01T13:13:32.997Z,4.68
2022-10-01T13:16:27.451Z,4.20
2022-10-01T13:19:06.366Z,3.95
2022-10-01T13:21:53.346Z,4.03
2022-10-01T13:24:32.914Z,4.00
2022-10-01T13:27:10.030Z,4.07
2022-10-01T13:29:55.081Z,3.80
2022-10-01T13:32:31.289Z,3.65
2022-10-01T13:35:01.147Z,4.03
2022-10-01T13:37:35.000Z,3.80
2022-10-01T13:40:02.512Z,3.67
2022-10-01T13:42:37.614Z,4.28
2022-10-01T13:45:22.741Z,4.20
2022-10-01T13:47:49.571Z,3.72
2022-10-01T13:50:24.702Z,4.20
2022-10-01T13:53:03.769Z,4.68
2022-10-01T13:55:31.867Z,6.50
2022-10-01T13:58:07.009Z,6.65
2022-10-01T14:00:34.140Z,6.10
2022-10-01T14:03:36.642Z,5.07
2022-10-01T14:06:07.772Z,5.20
2022-10-01T14:08:49.425Z,4.65
2022-10-01T14:11:47.875Z,4.07
2022-10-01T14:14:47.640Z,4.12
2022-10-01T14:17:15.152Z,5.00
2022-10-01T14:19:55.464Z,6.35
2022-10-01T14:22:49.448Z,6.07
2022-10-01T14:25:25.157Z,7.07
2022-10-01T14:28:12.638Z,7.22
2022-10-01T14:30:42.072Z,7.18
2022-10-01T14:33:08.615Z,7.35
2022-10-01T14:36:07.156Z,7.03
2022-10-01T14:38:34.360Z,6.80
2022-10-01T14:41:02.039Z,7.90
2022-10-01T14:43:31.664Z,7.15
2022-10-01T14:45:59.906Z,7.55
2022-10-01T14:48:29.800Z,7.07
2022-10-01T14:51:02.074Z,7.32
2022-10-01T14:53:32.269Z,8.40
2022-10-01T14:56:06.756Z,8.00
2022-10-01T14:58:37.896Z,7.75
2022-10-01T15:01:06.065Z,7.53
2022-10-01T15:03:38.738Z,7.30
2022-10-01T15:08:49.193Z,7.50
2022-10-01T15:11:21.136Z,8.00
2022-10-01T15:13:49.987Z,8.23
2022-10-01T15:16:19.512Z,8.00
2022-10-01T15:18:59.316Z,8.15
2022-10-01T15:21:39.375Z,8.18
2022-10-01T15:24:15.280Z,8.57
2022-10-01T15:26:42.107Z,7.93
2022-10-01T15:29:16.589Z,7.18
2022-10-01T15:31:46.327Z,6.62
2022-10-01T15:34:16.768Z,6.30
2022-10-01T15:36:44.485Z,6.35
2022-10-01T15:39:31.692Z,6.22
2022-10-01T15:42:01.641Z,6.82
2022-10-01T15:44:38.763Z,6.60
2022-10-01T15:47:35.854Z,7.00
2022-10-01T15:50:11.289Z,6.55
2022-10-01T15:52:51.055Z,5.07
2022-10-01T15:55:24.666Z,5.40
2022-10-01T15:58:06.981Z,5.32
2022-10-01T16:00:59.181Z,5.90
2022-10-01T16:03:50.753Z,6.00
2022-10-01T16:06:23.664Z,6.07
2022-10-01T16:09:14.484Z,6.20
2022-10-01T16:12:04.084Z,13.77
2022-10-01T16:14:44.133Z,13.20
2022-10-01T16:17:16.932Z,10.23
2022-10-01T16:19:44.101Z,6.50
2022-10-01T16:22:19.988Z,22.08
2022-10-01T16:24:49.033Z,14.13
2022-10-01T16:27:20.848Z,23.60
2022-10-01T16:30:12.848Z,22.45
2022-10-01T16:32:39.423Z,11.18
2022-10-01T16:35:15.269Z,9.82
2022-10-01T16:37:42.013Z,11.18
2022-10-01T16:40:11.720Z,10.00
2022-10-01T16:42:42.992Z,5.85
2022-10-01T16:45:15.881Z,9.70
2022-10-01T16:50:16.395Z,6.50
2022-10-01T16:52:43.054Z,6.85
2022-10-01T16:55:23.083Z,4.78
2022-10-01T16:57:56.832Z,6.07
2022-10-01T17:00:25.918Z,4.70
2022-10-01T17:02:54.412Z,6.65
2022-10-01T17:05:33.148Z,4.40
2022-10-01T17:08:04.426Z,5.85
2022-10-01T17:10:36.403Z,4.87
2022-10-01T17:13:03.726Z,6.17
2022-10-01T17:15:31.366Z,4.10
2022-10-01T17:17:58.870Z,3.55
2022-10-01T17:20:30.930Z,3.78
2022-10-01T17:22:58.429Z,2.37
2022-10-01T17:25:32.365Z,3.00
2022-10-01T17:28:01.601Z,2.55
2022-10-01T17:30:29.521Z,1.90
2022-10-01T17:32:57.405Z,2.28
2022-10-01T17:35:24.092Z,2.47
2022-10-01T17:37:50.648Z,2.90
2022-10-01T17:40:19.497Z,2.72
2022-10-01T17:42:47.151Z,3.70
2022-10-01T17:45:14.624Z,3.45
2022-10-01T17:47:49.217Z,2.85
2022-10-01T17:50:16.593Z,2.85
2022-10-01T17:52:43.678Z,2.80
2022-10-01T17:55:12.208Z,2.72
2022-10-01T17:57:38.873Z,2.10
2022-10-01T18:00:06.513Z,2.62
2022-10-01T18:02:41.996Z,1.98
2022-10-01T18:05:12.161Z,2.20
2022-10-01T18:07:39.050Z,1.92
2022-10-01T18:10:13.723Z,1.83
2022-10-01T18:12:40.922Z,2.42
2022-10-01T18:15:08.129Z,1.95
2022-10-01T18:17:36.500Z,2.00
2022-10-01T18:20:07.807Z,1.92
2022-10-01T18:22:35.789Z,2.15
2022-10-01T18:25:03.594Z,2.25
2022-10-01T18:27:30.879Z,2.28
2022-10-01T18:29:57.462Z,2.42
2022-10-01T18:32:29.662Z,2.20
2022-10-01T18:34:59.059Z,2.00
2022-10-01T18:37:40.478Z,2.00
2022-10-01T18:40:07.329Z,1.80
2022-10-01T18:42:55.250Z,2.00
2022-10-01T18:45:31.970Z,1.65
2022-10-01T18:48:06.753Z,1.60
2022-10-01T18:50:55.107Z,2.15
2022-10-01T18:53:39.878Z,1.77
2022-10-01T18:56:31.219Z,2.00
2022-10-01T18:59:22.342Z,1.90
2022-10-01T19:02:15.353Z,2.20
2022-10-01T19:05:00.465Z,2.33
2022-10-01T19:07:54.728Z,2.00
2022-10-01T19:10:30.587Z,2.65
2022-10-01T19:13:02.831Z,3.05
2022-10-01T19:15:40.768Z,3.17
2022-10-01T19:18:13.261Z,2.72
2022-10-01T19:20:59.194Z,2.85
2022-10-01T19:23:54.971Z,2.58
2022-10-01T19:26:44.577Z,2.55
2022-10-01T19:29:40.529Z,3.03
2022-10-01T19:32:16.400Z,3.10
2022-10-01T19:35:24.418Z,3.50
2022-10-01T19:37:55.173Z,3.50
2022-10-01T19:40:31.726Z,3.58
2022-10-01T19:43:19.535Z,3.20
2022-10-01T19:46:20.312Z,3.22
2022-10-01T19:48:58.061Z,3.60
2022-10-01T19:51:38.730Z,3.72
2022-10-01T19:54:17.615Z,3.50
2022-10-01T19:56:48.633Z,3.42
2022-10-01T19:59:19.928Z,3.95
2022-10-01T20:01:54.254Z,3.50
2022-10-01T20:04:39.230Z,3.40
2022-10-01T20:07:30.596Z,3.83
2022-10-01T20:10:29.473Z,3.15
2022-10-01T20:13:14.803Z,3.60
2022-10-01T20:16:02.819Z,3.40
2022-10-01T20:18:54.605Z,3.22
2022-10-01T20:21:50.195Z,3.37
2022-10-01T20:24:37.718Z,3.37
2022-10-01T20:27:11.514Z,3.28
2022-10-01T20:29:53.041Z,3.30
2022-10-01T20:32:27.430Z,3.05
2022-10-01T20:35:22.739Z,3.10
2022-10-01T20:38:08.565Z,3.28
2022-10-01T20:40:49.525Z,3.33
2022-10-01T20:43:35.226Z,3.15
2022-10-01T20:46:13.188Z,2.97
2022-10-01T20:48:47.509Z,2.83
2022-10-01T20:51:40.674Z,2.97
2022-10-01T20:54:12.233Z,3.17
2022-10-01T20:56:49.738Z,3.03
2022-10-01T20:59:27.452Z,3.25
2022-10-01T21:02:02.442Z,3.22
2022-10-01T21:04:41.206Z,2.95
2022-10-01T21:07:30.035Z,3.22
2022-10-01T21:10:03.419Z,3.10
2022-10-01T21:12:42.058Z,3.10
2022-10-01T21:15:14.203Z,3.00
2022-10-01T21:18:05.266Z,3.45
2022-10-01T21:20:34.430Z,2.60
2022-10-01T21:23:32.998Z,3.70
2022-10-01T21:26:19.209Z,3.90
2022-10-01T21:29:07.409Z,3.53
2022-10-01T21:32:12.634Z,3.67
2022-10-01T21:35:20.836Z,2.78
2022-10-01T21:38:00.264Z,2.95
2022-10-01T21:40:45.202Z,3.10
2022-10-01T21:43:43.899Z,2.97
2022-10-01T21:46:19.440Z,3.10
2022-10-01T21:49:09.779Z,2.65
2022-10-01T21:51:39.140Z,2.87
2022-10-01T21:54:32.054Z,2.80
2022-10-01T21:57:43.283Z,2.45
2022-10-01T22:00:16.725Z,2.75
2022-10-01T22:41:52.028Z,3.15
2022-10-01T22:44:21.128Z,3.03
2022-10-01T22:52:27.172Z,3.40
2022-10-01T22:55:09.061Z,3.20
2022-10-01T22:57:46.390Z,3.15
2022-10-01T23:00:14.739Z,3.20
